Time;durP1;ratioP1;P1;durP2;ratioP2;P2;SDS_P1;SDS_P2;PMS_P1;PMS_P2;Temp;Humidity;BMP_temperature;BMP_pressure;BME280_temperature;BME280_humidity;BME280_pressure;Samples;Min_cycle;Max_cycle;Signal;HPM_P1;HPM_P2
2021/10/18 00:00:34;;;;;;;;;;;;;;;18.45;58.57;100214.41;2071361;28;19920;-40
2021/10/18 00:01:35;;;;;;;;;;;;;;;18.45;58.60;100211.69;2070566;28;20335;-40
2021/10/18 00:02:35;;;;;;;;;;;;;;;18.45;58.73;100208.97;2076669;28;19913;-40
2021/10/18 00:03:35;;;;;;;;;;;;;;;18.43;58.70;100209.97;2075600;28;19920;-40
2021/10/18 00:04:36;;;;;;;;;;;;;;;18.44;58.61;100205.38;2084058;28;19909;-40
2021/10/18 00:05:36;;;;;;;;;;;;;;;18.45;58.73;100214.41;2075372;28;19924;-40
2021/10/18 00:06:36;;;;;;;;;;;;;;;18.43;58.60;100209.97;2075941;28;20523;-40
2021/10/18 00:07:38;;;;;;;;;;;;;;;18.45;58.62;100211.69;2085000;28;19908;-40
2021/10/18 00:08:38;;;;;;;;;;;;;;;18.43;58.72;100212.72;2082777;28;19919;-40
2021/10/18 00:09:38;;;;;;;;;;;;;;;18.45;58.73;100206.22;2077783;28;20531;-40
2021/10/18 00:10:39;;;;;;;;;;;;;;;18.42;58.69;100211.00;2074214;28;19952;-40
2021/10/18 00:11:39;;;;;;;;;;;;;;;18.44;58.60;100210.84;2075539;28;20219;-40
2021/10/18 00:12:40;;;;;;;;;;;;;;;18.43;58.63;100209.97;2077055;28;19917;-40
2021/10/18 00:13:40;;;;;;;;;;;;;;;18.44;58.70;100210.84;2074757;28;20810;-40
2021/10/18 00:14:40;;;;;;;;;;;;;;;18.43;58.67;100215.44;2076869;28;19909;-40
2021/10/18 00:15:41;;;;;;;;;;;;;;;18.45;58.63;100214.41;2079167;28;20161;-40
2021/10/18 00:16:41;;;;;;;;;;;;;;;18.43;58.62;100215.44;2074371;28;20542;-40
2021/10/18 00:17:41;;;;;;;;;;;;;;;18.45;58.68;100219.88;2078080;28;20339;-40
2021/10/18 00:18:42;;;;;;;;;;;;;;;18.45;58.75;100228.06;2075725;28;19912;-40
2021/10/18 00:19:42;;;;;;;;;;;;;;;18.43;58.76;100218.16;2077721;28;19969;-40
2021/10/18 00:20:42;;;;;;;;;;;;;;;18.43;58.61;100220.91;2078323;28;20295;-40
2021/10/18 00:21:43;;;;;;;;;;;;;;;18.44;58.70;100221.75;2075377;28;19916;-40
2021/10/18 00:22:43;;;;;;;;;;;;;;;18.45;58.65;100222.59;2078141;28;20307;-40
2021/10/18 00:23:44;;;;;;;;;;;;;;;18.43;58.78;100220.91;2075561;28;19917;-40
2021/10/18 00:24:44;;;;;;;;;;;;;;;18.43;58.77;100225.50;2076773;28;19913;-40
2021/10/18 00:25:45;;;;;;;;;;;;;;;18.43;58.79;100222.78;2077601;28;19923;-40
2021/10/18 00:26:45;;;;;;;;;;;;;;;18.43;58.65;100220.91;2075046;28;20353;-40
2021/10/18 00:27:46;;;;;;;;;;;;;;;18.42;58.71;100224.66;2076217;28;19963;-40
2021/10/18 00:28:46;;;;;;;;;;;;;;;18.42;58.70;100230.09;2077060;28;19917;-40
2021/10/18 00:29:46;;;;;;;;;;;;;;;18.42;58.76;100230.09;2080690;28;20839;-40
2021/10/18 00:30:47;;;;;;;;;;;;;;;18.43;58.70;100233.69;2078026;28;19929;-40
2021/10/18 00:31:47;;;;;;;;;;;;;;;18.43;58.80;100233.69;2074685;28;20364;-40
2021/10/18 00:32:48;;;;;;;;;;;;;;;18.43;58.74;100237.28;2078059;28;20216;-40
2021/10/18 00:33:48;;;;;;;;;;;;;;;18.43;58.79;100240.00;2077112;28;19952;-40
2021/10/18 00:34:48;;;;;;;;;;;;;;;18.42;58.87;100232.84;2072295;28;20231;-40
2021/10/18 00:35:49;;;;;;;;;;;;;;;18.43;58.75;100237.28;2076183;28;20347;-40
2021/10/18 00:36:49;;;;;;;;;;;;;;;18.42;58.61;100238.28;2072156;28;20844;-40
2021/10/18 00:37:49;;;;;;;;;;;;;;;18.43;58.67;100236.41;2074376;28;19913;-40
2021/10/18 00:38:50;;;;;;;;;;;;;;;18.42;58.70;100230.09;2074694;28;19913;-40
2021/10/18 00:39:50;;;;;;;;;;;;;;;18.42;58.71;100235.56;2071554;28;19913;-40
2021/10/18 00:40:50;;;;;;;;;;;;;;;18.42;58.68;100235.56;2074930;28;20077;-40
2021/10/18 00:41:51;;;;;;;;;;;;;;;18.42;58.83;100235.56;2076748;28;20409;-40
2021/10/18 00:42:53;;;;;;;;;;;;;;;18.42;58.78;100238.28;2076530;28;19912;-40
2021/10/18 00:43:55;;;;;;;;;;;;;;;18.43;58.71;100241.88;2077665;28;19918;-40
2021/10/18 00:44:55;;;;;;;;;;;;;;;18.42;58.77;100238.28;2083092;28;20407;-40
2021/10/18 00:45:56;;;;;;;;;;;;;;;18.42;58.75;100235.56;2079721;28;19978;-40
2021/10/18 00:46:56;;;;;;;;;;;;;;;18.43;58.70;100241.88;2077319;28;20501;-40
2021/10/18 00:47:57;;;;;;;;;;;;;;;18.43;58.68;100236.41;2074943;28;19919;-40
2021/10/18 00:48:58;;;;;;;;;;;;;;;18.42;58.71;100232.84;2074667;28;20060;-40
2021/10/18 00:49:58;;;;;;;;;;;;;;;18.42;58.61;100230.09;2073035;28;19916;-40
2021/10/18 00:50:59;;;;;;;;;;;;;;;18.43;58.78;100231.81;2072841;28;19913;-40
2021/10/18 00:51:59;;;;;;;;;;;;;;;18.42;58.68;100235.56;2074240;28;19935;-40
2021/10/18 00:53:00;;;;;;;;;;;;;;;18.42;58.78;100230.09;2076264;28;20104;-40
2021/10/18 00:54:00;;;;;;;;;;;;;;;18.42;58.75;100230.09;2074929;28;20393;-40
2021/10/18 00:55:01;;;;;;;;;;;;;;;18.42;58.71;100229.22;2068751;28;20387;-40
2021/10/18 00:56:02;;;;;;;;;;;;;;;18.42;58.80;100230.09;2080014;28;20528;-40
2021/10/18 00:57:02;;;;;;;;;;;;;;;18.41;58.79;100228.38;2078533;28;19908;-40
2021/10/18 00:58:03;;;;;;;;;;;;;;;18.42;58.84;100230.09;2073989;28;19963;-40
2021/10/18 00:59:03;;;;;;;;;;;;;;;18.42;58.81;100229.22;2081608;28;19939;-40
2021/10/18 01:00:05;;;;;;;;;;;;;;;18.42;58.85;100218.31;2082235;28;19916;-40
2021/10/18 01:01:06;;;;;;;;;;;;;;;18.41;58.80;100228.38;2077573;28;20283;-40
2021/10/18 01:02:06;;;;;;;;;;;;;;;18.41;58.81;100236.56;2073818;28;19975;-40
2021/10/18 01:03:07;;;;;;;;;;;;;;;18.41;58.77;100235.69;2072031;28;19925;-40
2021/10/18 01:04:08;;;;;;;;;;;;;;;18.41;58.84;100233.81;2074816;28;21178;-40
2021/10/18 01:05:09;;;;;;;;;;;;;;;18.40;58.85;100232.13;2075756;28;20198;-40
2021/10/18 01:06:09;;;;;;;;;;;;;;;18.40;58.70;100237.56;2078259;28;19921;-40
2021/10/18 01:07:09;;;;;;;;;;;;;;;18.41;58.65;100236.56;2076203;28;19931;-40
2021/10/18 01:08:10;;;;;;;;;;;;;;;18.41;58.88;100233.81;2076565;28;20320;-41
2021/10/18 01:09:10;;;;;;;;;;;;;;;18.40;58.80;100237.56;2075041;28;20382;-40
2021/10/18 01:10:11;;;;;;;;;;;;;;;18.40;58.81;100242.16;2078002;28;19916;-40
2021/10/18 01:11:11;;;;;;;;;;;;;;;18.40;58.74;100243.03;2076712;28;20007;-40
2021/10/18 01:12:11;;;;;;;;;;;;;;;18.40;58.88;100243.03;2074575;28;19913;-40
2021/10/18 01:13:12;;;;;;;;;;;;;;;18.40;58.78;100248.50;2074372;28;20253;-40
2021/10/18 01:14:12;;;;;;;;;;;;;;;18.40;58.86;100248.50;2070177;28;19921;-40
2021/10/18 01:15:12;;;;;;;;;;;;;;;18.39;58.90;100246.75;2072015;28;19977;-40
2021/10/18 01:16:14;;;;;;;;;;;;;;;18.39;58.93;100243.16;2076747;28;20159;-40
2021/10/18 01:17:15;;;;;;;;;;;;;;;18.40;58.98;100244.91;2073296;28;19917;-40
2021/10/18 01:18:15;;;;;;;;;;;;;;;18.39;58.84;100246.75;2076170;28;20239;-40
2021/10/18 01:19:16;;;;;;;;;;;;;;;18.40;58.85;100245.75;2076941;28;19923;-40
2021/10/18 01:20:27;;;;;;;;;;;;;;;18.39;58.83;100252.19;2076008;28;19928;-41
2021/10/18 01:21:28;;;;;;;;;;;;;;;18.39;59.05;100254.94;2078233;28;19915;-40
2021/10/18 01:22:28;;;;;;;;;;;;;;;18.40;58.86;100261.28;2076496;28;20040;-40
2021/10/18 01:23:28;;;;;;;;;;;;;;;18.39;58.96;100252.19;2074484;28;19917;-40
2021/10/18 01:24:30;;;;;;;;;;;;;;;18.39;58.92;100254.94;2078123;28;19974;-40
2021/10/18 01:25:30;;;;;;;;;;;;;;;18.39;58.95;100249.47;2075042;28;20475;-40
2021/10/18 01:26:30;;;;;;;;;;;;;;;18.39;58.90;100249.47;2075044;28;19917;-40
2021/10/18 01:27:31;;;;;;;;;;;;;;;18.39;59.00;100249.47;2077858;28;19912;-40
2021/10/18 01:28:31;;;;;;;;;;;;;;;18.39;59.08;100251.34;2076169;28;19939;-40
2021/10/18 01:29:33;;;;;;;;;;;;;;;18.38;59.06;100245.03;2077713;28;19913;-40
2021/10/18 01:30:33;;;;;;;;;;;;;;;18.39;59.18;100251.34;2068214;28;20036;-40
2021/10/18 01:31:34;;;;;;;;;;;;;;;18.38;59.04;100245.03;2070145;28;19921;-40
2021/10/18 01:32:34;;;;;;;;;;;;;;;18.38;59.10;100247.75;2073093;28;19956;-40
2021/10/18 01:33:36;;;;;;;;;;;;;;;18.37;59.05;100243.31;2075696;28;19913;-40
2021/10/18 01:34:36;;;;;;;;;;;;;;;18.38;58.96;100247.75;2075362;28;19978;-40
2021/10/18 01:35:37;;;;;;;;;;;;;;;18.38;58.96;100245.03;2076733;28;19959;-40
2021/10/18 01:36:37;;;;;;;;;;;;;;;18.38;59.07;100244.19;2075855;28;19921;-40
2021/10/18 01:37:38;;;;;;;;;;;;;;;18.37;59.08;100248.78;2075497;28;20509;-40
2021/10/18 01:38:39;;;;;;;;;;;;;;;18.37;58.91;100237.84;2076532;28;19956;-40
2021/10/18 01:39:39;;;;;;;;;;;;;;;18.37;58.96;100248.78;2072410;28;19912;-40
2021/10/18 01:40:39;;;;;;;;;;;;;;;18.37;59.04;100243.31;2079145;28;20722;-40
2021/10/18 01:41:40;;;;;;;;;;;;;;;18.37;58.99;100243.31;2073978;28;20622;-40
2021/10/18 01:42:41;;;;;;;;;;;;;;;18.38;58.98;100252.38;2072591;28;20203;-40
2021/10/18 01:43:41;;;;;;;;;;;;;;;18.38;59.04;100244.19;2073173;28;19925;-40
2021/10/18 01:44:42;;;;;;;;;;;;;;;18.37;59.01;100243.31;2077271;28;20235;-40
2021/10/18 01:45:42;;;;;;;;;;;;;;;18.37;59.06;100242.44;2075473;28;19923;-40
2021/10/18 01:46:42;;;;;;;;;;;;;;;18.37;59.06;100242.44;2072389;28;19917;-40
2021/10/18 01:47:43;;;;;;;;;;;;;;;18.37;59.07;100237.84;2076379;28;19917;-40
2021/10/18 01:48:43;;;;;;;;;;;;;;;18.36;59.02;100241.56;2071728;28;19909;-40
2021/10/18 01:49:43;;;;;;;;;;;;;;;18.36;58.86;100236.13;2074475;28;19916;-40
2021/10/18 01:50:44;;;;;;;;;;;;;;;18.38;59.08;100245.03;2074885;28;20231;-40
2021/10/18 01:51:44;;;;;;;;;;;;;;;18.37;58.93;100234.25;2078004;28;19909;-40
2021/10/18 01:52:45;;;;;;;;;;;;;;;18.36;59.00;100241.56;2076671;28;19909;-40
2021/10/18 01:53:46;;;;;;;;;;;;;;;18.36;58.94;100236.13;2075033;28;19915;-40
2021/10/18 01:54:46;;;;;;;;;;;;;;;18.37;59.07;100236.97;2077941;28;19919;-40
2021/10/18 01:55:46;;;;;;;;;;;;;;;18.35;58.94;100228.94;2075466;28;19913;-40
2021/10/18 01:56:47;;;;;;;;;;;;;;;18.36;59.02;100235.25;2076678;28;20307;-40
2021/10/18 01:57:48;;;;;;;;;;;;;;;18.36;58.92;100241.56;2070142;28;20055;-40
2021/10/18 01:58:48;;;;;;;;;;;;;;;18.36;58.86;100230.66;2076981;28;20039;-40
2021/10/18 01:59:48;;;;;;;;;;;;;;;18.36;58.93;100229.81;2070049;28;19924;-40
2021/10/18 02:00:49;;;;;;;;;;;;;;;18.36;59.03;100235.25;2072604;28;20286;-44
2021/10/18 02:01:49;;;;;;;;;;;;;;;18.36;59.01;100235.25;2078067;28;19920;-40
2021/10/18 02:02:49;;;;;;;;;;;;;;;18.36;59.07;100241.56;2073505;28;19917;-40
2021/10/18 02:03:50;;;;;;;;;;;;;;;18.36;58.96;100236.13;2076931;28;19935;-40
2021/10/18 02:04:50;;;;;;;;;;;;;;;18.36;58.98;100236.13;2077045;28;19913;-40
2021/10/18 02:05:50;;;;;;;;;;;;;;;18.36;58.95;100232.53;2072469;28;20407;-40
2021/10/18 02:06:51;;;;;;;;;;;;;;;18.36;59.08;100240.72;2072417;28;19917;-40
2021/10/18 02:07:51;;;;;;;;;;;;;;;18.35;59.04;100239.00;2074616;28;19916;-40
2021/10/18 02:08:52;;;;;;;;;;;;;;;18.35;59.17;100234.41;2077406;28;20338;-40
2021/10/18 02:09:55;;;;;;;;;;;;;;;18.36;59.04;100236.13;2072490;28;19975;-40
2021/10/18 02:10:55;;;;;;;;;;;;;;;18.35;59.07;100234.41;2076986;28;19917;-40
2021/10/18 02:11:55;;;;;;;;;;;;;;;18.35;58.88;100233.56;2075246;28;20182;-40
2021/10/18 02:12:56;;;;;;;;;;;;;;;18.34;59.08;100232.66;2075411;28;20557;-41
2021/10/18 02:13:57;;;;;;;;;;;;;;;18.34;59.08;100227.22;2077216;28;19987;-40
2021/10/18 02:14:57;;;;;;;;;;;;;;;18.35;59.12;100231.69;2069963;28;20515;-40
2021/10/18 02:15:57;;;;;;;;;;;;;;;18.34;58.93;100238.13;2072068;28;20458;-40
2021/10/18 02:16:57;;;;;;;;;;;;;;;18.35;58.94;100234.41;2076839;28;19924;-40
2021/10/18 02:17:58;;;;;;;;;;;;;;;18.34;58.93;100232.66;2073702;28;20267;-40
2021/10/18 02:18:58;;;;;;;;;;;;;;;18.34;58.97;100232.66;2069822;28;19921;-40
2021/10/18 02:19:58;;;;;;;;;;;;;;;18.35;58.88;100230.81;2074042;28;19917;-40
2021/10/18 02:21:01;;;;;;;;;;;;;;;18.33;59.02;100236.41;2075664;28;19913;-40
2021/10/18 02:22:02;;;;;;;;;;;;;;;18.34;59.01;100234.53;2068970;28;20143;-40
2021/10/18 02:23:02;;;;;;;;;;;;;;;18.34;58.98;100238.13;2074842;28;20716;-40
2021/10/18 02:24:03;;;;;;;;;;;;;;;18.34;59.06;100235.38;2077235;28;20323;-40
2021/10/18 02:25:05;;;;;;;;;;;;;;;18.35;59.07;100239.00;2076722;28;19913;-40
2021/10/18 02:26:05;;;;;;;;;;;;;;;18.34;58.92;100240.84;2075450;28;20418;-40
2021/10/18 02:27:06;;;;;;;;;;;;;;;18.33;58.88;100239.13;2077635;28;19913;-40
2021/10/18 02:28:06;;;;;;;;;;;;;;;18.33;58.99;100236.41;2073556;28;19917;-40
2021/10/18 02:29:06;;;;;;;;;;;;;;;18.34;59.10;100235.38;2075217;28;19956;-40
2021/10/18 02:30:07;;;;;;;;;;;;;;;18.33;59.10;100239.13;2078261;28;19989;-40
2021/10/18 02:31:07;;;;;;;;;;;;;;;18.33;59.05;100236.41;2074888;28;20039;-41
2021/10/18 02:32:08;;;;;;;;;;;;;;;18.33;59.06;100233.69;2075726;28;20865;-40
2021/10/18 02:33:08;;;;;;;;;;;;;;;18.33;59.04;100236.41;2070851;28;19917;-40
2021/10/18 02:34:08;;;;;;;;;;;;;;;18.32;59.15;100240.13;2074851;28;19951;-40
2021/10/18 02:35:09;;;;;;;;;;;;;;;18.32;59.08;100233.81;2071482;28;20328;-40
2021/10/18 02:36:09;;;;;;;;;;;;;;;18.32;59.16;100233.81;2073745;28;19990;-40
2021/10/18 02:37:10;;;;;;;;;;;;;;;18.32;59.16;100234.66;2074521;28;20158;-40
2021/10/18 02:38:10;;;;;;;;;;;;;;;18.32;59.16;100239.28;2077383;28;19939;-40
2021/10/18 02:39:10;;;;;;;;;;;;;;;18.32;59.03;100242.84;2075812;28;19920;-40
2021/10/18 02:40:11;;;;;;;;;;;;;;;18.32;58.96;100239.28;2072349;28;19924;-40
2021/10/18 02:41:11;;;;;;;;;;;;;;;18.33;59.16;100243.75;2074274;28;19909;-40
2021/10/18 02:42:11;;;;;;;;;;;;;;;18.32;59.05;100240.13;2072599;28;20422;-40
2021/10/18 02:43:11;;;;;;;;;;;;;;;18.31;58.99;100243.88;2070675;28;19968;-40
2021/10/18 02:44:12;;;;;;;;;;;;;;;18.31;59.17;100238.41;2076820;28;20013;-40
2021/10/18 02:45:12;;;;;;;;;;;;;;;18.32;59.17;100239.28;2077443;28;20004;-40
2021/10/18 02:46:12;;;;;;;;;;;;;;;18.30;59.08;100231.25;2077888;28;19956;-40
2021/10/18 02:47:13;;;;;;;;;;;;;;;18.31;59.10;100237.56;2076503;28;19923;-40
2021/10/18 02:48:13;;;;;;;;;;;;;;;18.31;59.26;100238.41;2078653;28;19951;-40
2021/10/18 02:49:13;;;;;;;;;;;;;;;18.31;59.23;100238.41;2077221;28;20207;-40
2021/10/18 02:50:14;;;;;;;;;;;;;;;18.31;59.09;100237.56;2074955;28;19992;-40
2021/10/18 02:51:14;;;;;;;;;;;;;;;18.31;58.98;100232.94;2077769;28;20311;-40
2021/10/18 02:52:14;;;;;;;;;;;;;;;18.31;59.14;100232.94;2073034;28;19923;-40
2021/10/18 02:53:15;;;;;;;;;;;;;;;18.31;59.09;100238.41;2072366;28;20181;-40
2021/10/18 02:54:15;;;;;;;;;;;;;;;18.31;59.22;100232.09;2070803;28;20215;-40
2021/10/18 02:55:15;;;;;;;;;;;;;;;18.30;59.14;100228.50;2071267;28;19970;-40
2021/10/18 02:56:16;;;;;;;;;;;;;;;18.30;59.07;100225.78;2070621;28;19917;-40
2021/10/18 02:57:16;;;;;;;;;;;;;;;18.31;59.14;100234.81;2071844;28;19909;-40
2021/10/18 02:58:17;;;;;;;;;;;;;;;18.29;59.16;100224.03;2073744;28;20659;-40
2021/10/18 02:59:17;;;;;;;;;;;;;;;18.29;59.09;100229.50;2078204;28;19963;-40
2021/10/18 03:00:17;;;;;;;;;;;;;;;18.31;59.04;100232.09;2072620;28;19924;-40
2021/10/18 03:01:17;;;;;;;;;;;;;;;18.30;59.15;100231.25;2072913;28;20326;-40
2021/10/18 03:02:18;;;;;;;;;;;;;;;18.29;59.16;100226.78;2076984;28;19921;-40
2021/10/18 03:03:18;;;;;;;;;;;;;;;18.29;59.06;100234.94;2076267;28;19916;-40
2021/10/18 03:04:18;;;;;;;;;;;;;;;18.29;59.09;100234.94;2078878;28;20573;-40
2021/10/18 03:05:19;;;;;;;;;;;;;;;18.29;59.08;100229.50;2077011;28;20002;-40
2021/10/18 03:06:19;;;;;;;;;;;;;;;18.29;59.02;100228.63;2078196;28;19924;-40
2021/10/18 03:07:21;;;;;;;;;;;;;;;18.29;59.18;100232.22;2077312;28;20315;-40
2021/10/18 03:08:22;;;;;;;;;;;;;;;18.29;59.05;100234.94;2075029;28;20007;-40
2021/10/18 03:09:22;;;;;;;;;;;;;;;18.28;59.09;100233.25;2078361;28;19917;-40
2021/10/18 03:10:22;;;;;;;;;;;;;;;18.29;59.01;100231.38;2077878;28;20357;-40
2021/10/18 03:11:22;;;;;;;;;;;;;;;18.29;58.94;100228.63;2076797;28;19923;-40
2021/10/18 03:12:23;;;;;;;;;;;;;;;18.28;59.18;100235.97;2076169;28;19913;-40
2021/10/18 03:13:23;;;;;;;;;;;;;;;18.29;59.09;100236.81;2078315;28;19917;-40
2021/10/18 03:14:24;;;;;;;;;;;;;;;18.29;58.97;100234.94;2079309;28;19963;-40
2021/10/18 03:15:24;;;;;;;;;;;;;;;18.28;59.10;100235.13;2071068;28;19975;-40
2021/10/18 03:16:24;;;;;;;;;;;;;;;18.28;59.16;100238.69;2073079;28;19967;-40
2021/10/18 03:17:25;;;;;;;;;;;;;;;18.28;59.06;100238.69;2070394;28;19924;-40
2021/10/18 03:18:26;;;;;;;;;;;;;;;18.28;59.00;100238.69;2073955;28;19917;-40
2021/10/18 03:19:26;;;;;;;;;;;;;;;18.29;59.11;100231.38;2076565;28;19917;-40
2021/10/18 03:20:27;;;;;;;;;;;;;;;18.28;58.99;100238.69;2070838;28;19994;-40
2021/10/18 03:21:27;;;;;;;;;;;;;;;18.28;59.11;100235.97;2075056;28;19978;-40
2021/10/18 03:22:27;;;;;;;;;;;;;;;18.28;59.07;100232.38;2070070;28;19917;-40
2021/10/18 03:23:27;;;;;;;;;;;;;;;18.28;59.11;100237.84;2072013;28;19963;-40
2021/10/18 03:24:28;;;;;;;;;;;;;;;18.28;59.09;100240.56;2072846;28;20042;-40
2021/10/18 03:25:34;;;;;;;;;;;;;;;18.28;59.09;100235.13;2076478;28;19917;-40
2021/10/18 03:26:34;;;;;;;;;;;;;;;18.27;59.11;100236.97;2075500;28;19924;-40
2021/10/18 03:27:35;;;;;;;;;;;;;;;18.27;59.11;100239.69;2077011;28;19994;-40
2021/10/18 03:28:35;;;;;;;;;;;;;;;18.28;58.99;100237.84;2078693;28;19913;-40
2021/10/18 03:29:36;;;;;;;;;;;;;;;18.28;58.92;100244.16;2074821;28;20346;-40
2021/10/18 03:30:36;;;;;;;;;;;;;;;18.28;58.90;100246.03;2078131;28;19908;-40
2021/10/18 03:31:37;;;;;;;;;;;;;;;18.27;59.05;100236.97;2076963;28;19924;-40
2021/10/18 03:32:37;;;;;;;;;;;;;;;18.27;58.94;100234.22;2076965;28;19921;-40
2021/10/18 03:33:39;;;;;;;;;;;;;;;18.27;59.03;100245.16;2077214;28;19909;-40
2021/10/18 03:34:40;;;;;;;;;;;;;;;18.28;58.91;100246.03;2076243;28;19917;-40
2021/10/18 03:35:40;;;;;;;;;;;;;;;18.28;58.93;100246.88;2077929;28;19913;-40
2021/10/18 03:36:40;;;;;;;;;;;;;;;18.27;59.04;100247.00;2077417;28;20325;-40
2021/10/18 03:37:41;;;;;;;;;;;;;;;18.27;58.94;100247.00;2076031;28;20274;-40
2021/10/18 03:38:41;;;;;;;;;;;;;;;18.26;58.92;100246.16;2077519;28;19909;-40
2021/10/18 03:39:41;;;;;;;;;;;;;;;18.26;59.11;100246.16;2076451;28;20237;-40
2021/10/18 03:40:42;;;;;;;;;;;;;;;18.26;59.17;100248.88;2075864;28;20376;-40
2021/10/18 03:41:42;;;;;;;;;;;;;;;18.27;59.02;100247.88;2077018;28;19944;-40
2021/10/18 03:42:42;;;;;;;;;;;;;;;18.26;59.02;100245.31;2077837;28;19912;-40
2021/10/18 03:43:43;;;;;;;;;;;;;;;18.27;59.03;100252.47;2076371;28;20298;-41
2021/10/18 03:44:43;;;;;;;;;;;;;;;18.27;58.91;100258.78;2079814;28;20256;-40
2021/10/18 03:45:43;;;;;;;;;;;;;;;18.26;58.99;100246.16;2075643;28;19917;-40
2021/10/18 03:46:43;;;;;;;;;;;;;;;18.27;58.91;100252.47;2076968;28;19916;-40
2021/10/18 03:47:44;;;;;;;;;;;;;;;18.26;59.17;100257.06;2078011;28;20019;-40
2021/10/18 03:48:44;;;;;;;;;;;;;;;18.26;58.92;100256.22;2076695;28;19917;-40
2021/10/18 03:49:44;;;;;;;;;;;;;;;18.25;58.90;100252.63;2077921;28;19917;-40
2021/10/18 03:50:45;;;;;;;;;;;;;;;18.26;59.11;100254.34;2071371;28;19963;-40
2021/10/18 03:51:45;;;;;;;;;;;;;;;18.25;58.96;100255.38;2079333;28;19908;-40
2021/10/18 03:52:45;;;;;;;;;;;;;;;18.25;59.12;100255.38;2085392;28;19923;-40
2021/10/18 03:53:46;;;;;;;;;;;;;;;18.26;59.12;100261.69;2074943;28;21125;-41
2021/10/18 03:54:46;;;;;;;;;;;;;;;18.26;58.87;100259.81;2071749;28;19917;-40
2021/10/18 03:55:46;;;;;;;;;;;;;;;18.25;58.94;100258.09;2071738;28;19917;-40
2021/10/18 03:56:47;;;;;;;;;;;;;;;18.25;59.11;100249.91;2074074;28;20315;-40
2021/10/18 03:57:47;;;;;;;;;;;;;;;18.24;59.07;100259.06;2070900;28;19953;-40
2021/10/18 03:58:47;;;;;;;;;;;;;;;18.24;58.96;100264.53;2072817;28;19920;-40
2021/10/18 03:59:48;;;;;;;;;;;;;;;18.25;59.18;100269.00;2073019;28;20213;-40
2021/10/18 04:00:48;;;;;;;;;;;;;;;18.26;59.12;100268.00;2071676;28;20236;-40
2021/10/18 04:01:49;;;;;;;;;;;;;;;18.25;58.99;100262.66;2076127;28;20290;-40
2021/10/18 04:02:49;;;;;;;;;;;;;;;18.25;59.14;100260.81;2076612;28;19923;-40
2021/10/18 04:03:49;;;;;;;;;;;;;;;18.25;58.92;100270.84;2077448;28;19920;-40
2021/10/18 04:04:50;;;;;;;;;;;;;;;18.25;59.09;100263.56;2077870;28;19927;-40
2021/10/18 04:05:50;;;;;;;;;;;;;;;18.25;59.04;100265.38;2073173;28;19917;-40
2021/10/18 04:06:50;;;;;;;;;;;;;;;18.25;58.98;100270.84;2073750;28;19916;-40
2021/10/18 04:07:51;;;;;;;;;;;;;;;18.24;58.94;100275.44;2078905;28;20201;-40
2021/10/18 04:08:53;;;;;;;;;;;;;;;18.25;58.93;100281.75;2073150;28;20341;-40
2021/10/18 04:09:54;;;;;;;;;;;;;;;18.24;59.15;100278.19;2075069;28;19916;-40
2021/10/18 04:10:54;;;;;;;;;;;;;;;18.24;59.02;100275.44;2078729;28;20096;-40
2021/10/18 04:11:55;;;;;;;;;;;;;;;18.24;59.08;100277.31;2076529;28;20128;-40
2021/10/18 04:12:55;;;;;;;;;;;;;;;18.25;59.05;100282.66;2074503;28;20034;-40
2021/10/18 04:13:55;;;;;;;;;;;;;;;18.24;58.94;100280.91;2070399;28;19917;-41
2021/10/18 04:14:56;;;;;;;;;;;;;;;18.24;58.98;100282.78;2073863;28;19909;-40
2021/10/18 04:15:56;;;;;;;;;;;;;;;18.25;58.90;100282.66;2077594;28;20461;-40
2021/10/18 04:16:57;;;;;;;;;;;;;;;18.24;58.97;100278.19;2076771;28;19920;-40
2021/10/18 04:17:57;;;;;;;;;;;;;;;18.23;59.15;100279.19;2075756;28;19921;-40
2021/10/18 04:18:57;;;;;;;;;;;;;;;18.23;58.88;100273.75;2078102;28;19916;-40
2021/10/18 04:19:58;;;;;;;;;;;;;;;18.23;59.05;100279.19;2075754;28;19916;-40
2021/10/18 04:20:59;;;;;;;;;;;;;;;18.23;59.13;100279.19;2078734;28;19976;-40
2021/10/18 04:22:00;;;;;;;;;;;;;;;18.23;58.95;100281.91;2078364;28;19995;-40
2021/10/18 04:23:00;;;;;;;;;;;;;;;18.23;59.03;100273.75;2076162;28;20337;-40
2021/10/18 04:24:00;;;;;;;;;;;;;;;18.23;58.93;100278.31;2078211;28;19963;-40
2021/10/18 04:25:01;;;;;;;;;;;;;;;18.23;59.05;100281.03;2076419;28;20226;-40
2021/10/18 04:26:01;;;;;;;;;;;;;;;18.23;58.91;100284.66;2076149;28;19943;-40
2021/10/18 04:27:02;;;;;;;;;;;;;;;18.23;59.07;100289.22;2077254;28;19917;-40
2021/10/18 04:28:02;;;;;;;;;;;;;;;18.23;59.11;100279.19;2074524;28;19920;-40
2021/10/18 04:29:04;;;;;;;;;;;;;;;18.22;59.01;100277.44;2076604;28;19912;-40
2021/10/18 04:30:05;;;;;;;;;;;;;;;18.23;59.06;100278.31;2069847;28;20254;-40
2021/10/18 04:31:05;;;;;;;;;;;;;;;18.21;59.09;100286.66;2072802;28;19943;-40
2021/10/18 04:32:05;;;;;;;;;;;;;;;18.22;58.90;100282.91;2077453;28;19927;-40
2021/10/18 04:33:06;;;;;;;;;;;;;;;18.21;58.88;100282.06;2076676;28;20568;-40
2021/10/18 04:34:06;;;;;;;;;;;;;;;18.21;58.97;100281.19;2073976;28;19916;-40
2021/10/18 04:35:07;;;;;;;;;;;;;;;18.21;59.02;100282.06;2078577;28;19917;-40
2021/10/18 04:36:07;;;;;;;;;;;;;;;18.21;58.97;100282.06;2074784;28;20243;-41
2021/10/18 04:37:07;;;;;;;;;;;;;;;18.22;59.08;100288.38;2075921;28;19913;-40
2021/10/18 04:38:08;;;;;;;;;;;;;;;18.21;59.09;100281.19;2072238;28;19921;-40
2021/10/18 04:39:08;;;;;;;;;;;;;;;18.21;59.09;100278.47;2073144;28;20157;-40
2021/10/18 04:40:08;;;;;;;;;;;;;;;18.21;58.92;100276.59;2077882;28;19940;-40
2021/10/18 04:41:09;;;;;;;;;;;;;;;18.21;58.91;100281.19;2075389;28;19916;-40
2021/10/18 04:42:09;;;;;;;;;;;;;;;18.20;59.15;100274.00;2075578;28;19970;-40
2021/10/18 04:43:09;;;;;;;;;;;;;;;18.20;59.05;100274.88;2077182;28;19917;-40
2021/10/18 04:44:10;;;;;;;;;;;;;;;18.21;58.99;100281.19;2075297;28;19927;-40
2021/10/18 04:45:10;;;;;;;;;;;;;;;18.21;58.89;100281.19;2077420;28;19916;-40
2021/10/18 04:46:11;;;;;;;;;;;;;;;18.20;59.12;100279.44;2076231;28;19919;-40
2021/10/18 04:47:12;;;;;;;;;;;;;;;18.20;59.01;100284.91;2077234;28;19939;-40
2021/10/18 04:48:12;;;;;;;;;;;;;;;18.21;58.92;100281.19;2077032;28;20068;-40
2021/10/18 04:49:12;;;;;;;;;;;;;;;18.21;59.06;100286.66;2076323;28;20140;-40
2021/10/18 04:50:13;;;;;;;;;;;;;;;18.20;58.89;100287.63;2077709;28;19913;-40
2021/10/18 04:51:13;;;;;;;;;;;;;;;18.19;59.09;100284.06;2077582;28;19923;-40
2021/10/18 04:52:14;;;;;;;;;;;;;;;18.20;59.10;100284.91;2072436;28;19932;-40
2021/10/18 04:53:14;;;;;;;;;;;;;;;18.20;59.18;100284.91;2071364;28;19913;-40
2021/10/18 04:54:14;;;;;;;;;;;;;;;18.20;58.98;100287.63;2076443;28;19919;-40
2021/10/18 04:55:15;;;;;;;;;;;;;;;18.21;59.01;100292.09;2081757;28;19924;-40
2021/10/18 04:56:15;;;;;;;;;;;;;;;18.20;59.14;100290.38;2073379;28;19916;-40
2021/10/18 04:57:16;;;;;;;;;;;;;;;18.20;59.17;100293.09;2075950;28;19944;-40
2021/10/18 04:58:16;;;;;;;;;;;;;;;18.20;59.12;100293.09;2076764;28;19944;-40
2021/10/18 04:59:16;;;;;;;;;;;;;;;18.19;59.14;100289.50;2077372;28;20227;-40
2021/10/18 05:00:17;;;;;;;;;;;;;;;18.19;58.92;100289.50;2075558;28;19970;-40
2021/10/18 05:01:17;;;;;;;;;;;;;;;18.19;59.00;100284.06;2076925;28;19921;-40
2021/10/18 05:02:17;;;;;;;;;;;;;;;18.20;59.07;100284.91;2076057;28;19916;-40
2021/10/18 05:03:17;;;;;;;;;;;;;;;18.19;59.11;100284.06;2077227;28;20561;-40
2021/10/18 05:04:18;;;;;;;;;;;;;;;18.19;59.00;100292.22;2076597;28;19928;-40
2021/10/18 05:05:19;;;;;;;;;;;;;;;18.20;59.14;100298.53;2075900;28;19967;-40
2021/10/18 05:06:19;;;;;;;;;;;;;;;18.18;59.01;100293.25;2076137;28;19916;-40
2021/10/18 05:07:19;;;;;;;;;;;;;;;18.19;59.00;100292.22;2079472;28;19916;-40
2021/10/18 05:08:19;;;;;;;;;;;;;;;18.19;59.05;100299.56;2073724;28;20769;-40
2021/10/18 05:09:20;;;;;;;;;;;;;;;18.19;58.90;100300.41;2077675;28;19913;-40
2021/10/18 05:10:20;;;;;;;;;;;;;;;18.19;59.13;100305.03;2076526;28;20274;-40